createdAt,value
2023-01-26T00:02:18.565Z,4.10
2023-01-26T00:05:03.971Z,4.10
2023-01-26T00:07:49.525Z,4.10
2023-01-26T00:10:35.786Z,4.20
2023-01-26T00:13:22.895Z,4.10
2023-01-26T00:16:09.951Z,4.10
2023-01-26T00:18:55.675Z,4.10
2023-01-26T00:21:41.484Z,4.10
2023-01-26T00:24:27.315Z,4.10
2023-01-26T00:27:12.630Z,4.00
2023-01-26T00:29:58.123Z,4.00
2023-01-26T00:32:44.068Z,3.90
2023-01-26T00:35:29.798Z,3.90
2023-01-26T00:38:15.257Z,3.90
2023-01-26T00:41:00.497Z,3.90
2023-01-26T00:43:45.697Z,3.90
2023-01-26T00:46:32.051Z,3.80
2023-01-26T00:49:18.915Z,3.70
2023-01-26T00:52:05.078Z,3.80
2023-01-26T00:54:50.703Z,3.80
2023-01-26T00:57:35.993Z,3.80
2023-01-26T01:00:21.792Z,3.80
2023-01-26T01:03:07.671Z,3.80
2023-01-26T01:05:53.228Z,3.80
2023-01-26T01:08:38.517Z,3.80
2023-01-26T01:11:25.280Z,3.80
2023-01-26T01:14:11.758Z,3.80
2023-01-26T01:16:57.280Z,3.70
2023-01-26T01:19:42.749Z,3.70
2023-01-26T01:22:28.496Z,3.70
2023-01-26T01:25:15.281Z,3.70
2023-01-26T01:28:01.067Z,3.70
2023-01-26T01:30:46.774Z,3.70
2023-01-26T01:33:33.287Z,3.70
2023-01-26T01:36:18.811Z,3.70
2023-01-26T01:39:04.491Z,3.80
2023-01-26T01:41:50.132Z,3.80
2023-01-26T01:44:36.681Z,3.90
2023-01-26T01:47:26.648Z,3.90
2023-01-26T01:50:16.158Z,3.90
2023-01-26T01:53:01.800Z,4.00
2023-01-26T01:55:47.738Z,3.90
2023-01-26T01:58:37.277Z,3.90
2023-01-26T02:01:22.948Z,3.90
2023-01-26T02:04:09.006Z,3.90
2023-01-26T02:06:59.088Z,3.80
2023-01-26T02:10:03.983Z,3.70
2023-01-26T02:12:51.871Z,3.80
2023-01-26T02:15:37.321Z,3.80
2023-01-26T02:18:22.730Z,3.90
2023-01-26T02:21:11.366Z,3.90
2023-01-26T02:23:57.059Z,3.90
2023-01-26T02:26:43.282Z,4.00
2023-01-26T02:29:29.083Z,4.00
2023-01-26T02:32:14.617Z,4.00
2023-01-26T02:35:00.073Z,4.10
2023-01-26T02:37:45.769Z,4.10
2023-01-26T02:40:40.647Z,4.10
2023-01-26T02:43:26.914Z,4.20
2023-01-26T02:46:12.512Z,4.20
2023-01-26T02:49:17.850Z,4.20
2023-01-26T02:52:04.974Z,4.10
2023-01-26T02:55:10.475Z,4.20
2023-01-26T02:58:04.340Z,4.10
2023-01-26T03:00:51.936Z,4.10
2023-01-26T03:03:45.233Z,4.20
2023-01-26T03:06:32.731Z,4.10
2023-01-26T03:09:18.307Z,4.10
2023-01-26T03:12:04.344Z,4.10
2023-01-26T03:15:09.771Z,4.00
2023-01-26T03:18:24.676Z,4.00
2023-01-26T03:21:31.492Z,3.90
2023-01-26T03:24:36.158Z,3.90
2023-01-26T03:27:26.883Z,3.90
2023-01-26T03:30:15.317Z,3.90
2023-01-26T03:33:03.234Z,4.00
2023-01-26T03:35:52.087Z,4.00
2023-01-26T03:38:37.345Z,3.90
2023-01-26T03:41:41.412Z,4.00
2023-01-26T03:44:46.194Z,3.90
2023-01-26T03:47:50.879Z,3.80
2023-01-26T03:50:55.724Z,3.80
2023-01-26T03:54:00.412Z,3.80
2023-01-26T03:56:45.699Z,3.70
2023-01-26T03:59:39.111Z,3.70
2023-01-26T04:02:54.814Z,3.70
2023-01-26T04:06:16.142Z,3.70
2023-01-26T04:09:06.306Z,3.70
2023-01-26T04:11:52.323Z,3.80
2023-01-26T04:14:57.507Z,3.80
2023-01-26T04:18:03.746Z,3.80
2023-01-26T04:21:07.973Z,3.80
2023-01-26T04:23:56.560Z,3.80
2023-01-26T04:26:43.183Z,3.80
2023-01-26T04:29:34.151Z,3.70
2023-01-26T04:32:20.229Z,3.80
2023-01-26T04:35:06.431Z,3.80
2023-01-26T04:37:53.252Z,3.70
2023-01-26T04:40:38.907Z,3.80
2023-01-26T04:43:24.744Z,3.70
2023-01-26T04:46:10.773Z,3.70
2023-01-26T04:48:58.536Z,3.70
2023-01-26T04:51:44.512Z,3.70
2023-01-26T04:54:30.355Z,3.70
2023-01-26T04:57:16.159Z,3.70
2023-01-26T05:00:08.676Z,3.60
2023-01-26T05:02:54.292Z,3.60
2023-01-26T05:05:39.991Z,3.60
2023-01-26T05:08:25.591Z,3.60
2023-01-26T05:11:11.596Z,3.70
2023-01-26T05:14:20.076Z,3.70
2023-01-26T05:17:23.119Z,3.60
2023-01-26T05:20:40.646Z,3.60
2023-01-26T05:23:45.965Z,3.70
2023-01-26T05:27:14.497Z,3.60
2023-01-26T05:30:00.979Z,3.70
2023-01-26T05:32:49.449Z,3.70
2023-01-26T05:35:35.162Z,3.70
2023-01-26T05:38:22.453Z,3.70
2023-01-26T05:41:08.681Z,3.80
2023-01-26T05:44:10.360Z,3.70
2023-01-26T05:47:12.937Z,3.70
2023-01-26T05:50:00.129Z,3.70
2023-01-26T05:52:49.931Z,3.70
2023-01-26T05:55:35.754Z,3.70
2023-01-26T05:58:21.390Z,3.70
2023-01-26T06:01:08.625Z,3.70
2023-01-26T06:04:03.281Z,3.70
2023-01-26T06:06:57.283Z,3.80
2023-01-26T06:09:47.482Z,3.70
2023-01-26T06:12:51.623Z,3.70
2023-01-26T06:15:56.009Z,3.70
2023-01-26T06:18:49.905Z,3.70
2023-01-26T06:21:36.759Z,3.70
2023-01-26T06:24:23.887Z,3.70
2023-01-26T06:27:15.040Z,3.70
2023-01-26T06:30:07.509Z,3.70
2023-01-26T06:32:54.939Z,3.70
2023-01-26T06:35:40.619Z,3.70
2023-01-26T06:38:30.355Z,3.80
2023-01-26T06:41:16.638Z,3.70
2023-01-26T06:44:02.592Z,3.80
2023-01-26T06:46:48.441Z,3.80
2023-01-26T06:49:34.681Z,3.80
2023-01-26T06:52:23.995Z,3.70
2023-01-26T06:55:17.277Z,3.70
2023-01-26T06:58:12.202Z,3.70
2023-01-26T07:01:22.868Z,3.80
2023-01-26T07:04:08.116Z,3.80
2023-01-26T07:06:53.795Z,3.90
2023-01-26T07:09:39.800Z,3.90
2023-01-26T07:12:25.467Z,3.90
2023-01-26T07:15:11.754Z,3.90
2023-01-26T07:17:58.047Z,3.90
2023-01-26T07:20:44.480Z,3.90
2023-01-26T07:23:30.415Z,4.00
2023-01-26T07:26:15.791Z,4.00
2023-01-26T07:29:01.458Z,4.00
2023-01-26T07:31:47.207Z,4.00
2023-01-26T07:34:32.674Z,4.00
2023-01-26T07:37:18.460Z,4.10
2023-01-26T07:40:04.343Z,4.20
2023-01-26T07:42:49.969Z,4.30
2023-01-26T07:45:58.355Z,4.30
2023-01-26T07:48:44.098Z,4.30
2023-01-26T07:51:29.795Z,4.40
2023-01-26T07:54:15.756Z,4.30
2023-01-26T07:57:01.454Z,4.30
2023-01-26T07:59:47.070Z,4.30
2023-01-26T08:02:32.875Z,4.40
2023-01-26T08:05:18.593Z,4.40
2023-01-26T08:08:04.563Z,4.50
2023-01-26T08:10:50.036Z,4.60
2023-01-26T08:13:36.380Z,4.60
2023-01-26T08:16:22.780Z,4.70
2023-01-26T08:19:08.559Z,4.80
2023-01-26T08:21:54.962Z,4.80
2023-01-26T08:24:40.765Z,4.80
2023-01-26T08:27:26.044Z,4.90
2023-01-26T08:30:13.002Z,4.90
2023-01-26T08:32:59.133Z,5.00
2023-01-26T08:35:45.121Z,5.10
2023-01-26T08:38:31.881Z,5.10
2023-01-26T08:41:17.159Z,5.20
2023-01-26T08:44:02.608Z,5.20
2023-01-26T08:46:48.273Z,5.20
2023-01-26T08:49:33.525Z,5.20
2023-01-26T08:52:18.886Z,5.20
2023-01-26T08:55:04.676Z,5.20
2023-01-26T08:57:55.476Z,5.10
2023-01-26T09:00:41.023Z,5.10
2023-01-26T09:03:26.499Z,5.20
2023-01-26T09:06:12.177Z,5.20
2023-01-26T09:08:57.507Z,5.30
2023-01-26T09:11:43.198Z,5.40
2023-01-26T09:14:28.879Z,5.50
2023-01-26T09:17:14.389Z,5.50
2023-01-26T09:20:00.157Z,5.60
2023-01-26T09:22:46.192Z,5.60
2023-01-26T09:25:31.503Z,5.70
2023-01-26T09:28:16.962Z,5.80
2023-01-26T09:31:06.432Z,5.90
2023-01-26T09:33:52.215Z,6.00
2023-01-26T09:36:39.250Z,6.10
2023-01-26T09:39:26.250Z,6.10
2023-01-26T09:42:30.076Z,6.20
2023-01-26T09:45:22.916Z,6.30
2023-01-26T09:48:14.724Z,6.40
2023-01-26T09:51:10.599Z,6.40
2023-01-26T09:53:58.969Z,6.60
2023-01-26T09:56:44.340Z,6.70
2023-01-26T09:59:36.698Z,6.60
2023-01-26T10:02:31.862Z,6.70
2023-01-26T10:05:25.381Z,6.70
2023-01-26T10:08:12.737Z,6.80
2023-01-26T10:11:00.511Z,6.80
2023-01-26T10:13:50.569Z,6.80
2023-01-26T10:16:36.150Z,6.70
2023-01-26T10:19:26.835Z,6.70
2023-01-26T10:22:15.516Z,6.70
2023-01-26T10:25:01.300Z,6.80
2023-01-26T10:27:46.924Z,6.60
2023-01-26T10:30:32.860Z,6.70
2023-01-26T10:33:20.157Z,6.50
2023-01-26T10:36:06.875Z,6.40
2023-01-26T10:38:52.636Z,6.40
2023-01-26T10:41:39.554Z,6.30
2023-01-26T10:44:31.883Z,6.40
2023-01-26T10:47:18.974Z,6.50
2023-01-26T10:50:13.739Z,6.60
2023-01-26T10:53:00.594Z,6.40
2023-01-26T10:55:58.030Z,6.60
2023-01-26T10:58:46.787Z,6.50
2023-01-26T11:01:51.071Z,6.50
2023-01-26T11:04:36.672Z,6.40
2023-01-26T11:07:27.263Z,6.50
2023-01-26T11:10:21.972Z,6.60
2023-01-26T11:13:21.064Z,6.60
2023-01-26T11:16:07.194Z,6.50
2023-01-26T11:18:55.758Z,6.60
2023-01-26T11:21:44.777Z,6.60
2023-01-26T11:24:46.724Z,6.60
2023-01-26T11:27:32.450Z,6.70
2023-01-26T11:30:17.913Z,6.70
2023-01-26T11:33:15.500Z,6.90
2023-01-26T11:36:05.959Z,7.00
2023-01-26T11:39:03.566Z,7.20
2023-01-26T11:42:07.968Z,7.30
2023-01-26T11:45:14.624Z,7.30
2023-01-26T11:48:15.019Z,7.40
2023-01-26T11:51:14.340Z,7.50
2023-01-26T11:54:02.825Z,7.70
2023-01-26T11:56:54.362Z,7.70
2023-01-26T11:59:44.308Z,7.70
2023-01-26T12:02:31.575Z,7.60
2023-01-26T12:05:22.278Z,7.50
2023-01-26T12:08:13.710Z,7.60
2023-01-26T12:11:21.973Z,7.50
2023-01-26T12:14:16.839Z,7.70
2023-01-26T12:17:17.680Z,7.70
2023-01-26T12:20:22.131Z,8.00
2023-01-26T12:23:27.505Z,8.10
2023-01-26T12:26:18.315Z,8.10
2023-01-26T12:29:09.710Z,8.10
2023-01-26T12:32:01.231Z,8.10
2023-01-26T12:34:46.698Z,8.20
2023-01-26T12:37:35.368Z,8.20
2023-01-26T12:40:25.590Z,8.30
2023-01-26T12:43:19.970Z,8.40
2023-01-26T12:46:06.048Z,8.40
2023-01-26T12:49:02.719Z,8.40
2023-01-26T12:51:50.936Z,8.50
2023-01-26T12:54:36.505Z,8.20
2023-01-26T12:57:24.198Z,8.30
2023-01-26T13:00:21.045Z,8.40
2023-01-26T13:03:26.858Z,8.50
2023-01-26T13:06:12.641Z,8.50
2023-01-26T13:08:58.066Z,8.30
2023-01-26T13:11:43.651Z,8.30
2023-01-26T13:14:30.902Z,8.40
2023-01-26T13:17:16.491Z,8.40
2023-01-26T13:20:14.812Z,8.20
2023-01-26T13:23:00.452Z,8.30
2023-01-26T13:25:54.162Z,8.10
2023-01-26T13:28:42.405Z,8.10
2023-01-26T13:31:32.623Z,8.30
2023-01-26T13:34:36.986Z,8.40
2023-01-26T13:37:22.228Z,8.40
2023-01-26T13:40:31.441Z,8.40
2023-01-26T13:43:29.321Z,8.50
2023-01-26T13:46:31.162Z,8.50
2023-01-26T13:49:35.691Z,8.40
2023-01-26T13:52:22.684Z,8.40
2023-01-26T13:55:13.396Z,8.30
2023-01-26T13:58:12.081Z,8.30
2023-01-26T14:01:02.387Z,8.40
2023-01-26T14:03:48.336Z,8.40
2023-01-26T14:06:35.952Z,8.50
2023-01-26T14:09:21.503Z,8.50
2023-01-26T14:12:08.495Z,8.50
2023-01-26T14:14:56.272Z,8.50
2023-01-26T14:17:52.201Z,8.50
2023-01-26T14:20:39.521Z,8.50
2023-01-26T14:23:29.418Z,8.40
2023-01-26T14:26:20.236Z,8.30
2023-01-26T14:29:20.457Z,8.40
2023-01-26T14:32:13.935Z,8.40
2023-01-26T14:35:00.673Z,8.30
2023-01-26T14:37:46.493Z,8.30
2023-01-26T14:40:32.165Z,8.20
2023-01-26T14:43:17.871Z,8.10
2023-01-26T14:46:03.371Z,8.10
2023-01-26T14:49:01.655Z,8.10
2023-01-26T14:51:55.629Z,8.10
2023-01-26T14:54:43.903Z,8.00
2023-01-26T14:57:30.882Z,8.00
2023-01-26T15:00:21.293Z,8.00
2023-01-26T15:03:11.996Z,8.10
2023-01-26T15:06:06.054Z,8.00
2023-01-26T15:09:05.245Z,7.90
2023-01-26T15:12:16.917Z,7.80
2023-01-26T15:15:03.107Z,7.70
2023-01-26T15:17:59.923Z,7.70
2023-01-26T15:20:48.508Z,7.70
2023-01-26T15:23:40.579Z,7.70
2023-01-26T15:26:30.515Z,7.80
2023-01-26T15:29:19.366Z,7.70
2023-01-26T15:32:04.987Z,7.60
2023-01-26T15:35:02.768Z,7.60
2023-01-26T15:37:48.667Z,7.60
2023-01-26T15:40:34.121Z,7.50
2023-01-26T15:43:20.277Z,7.50
2023-01-26T15:46:05.791Z,7.40
2023-01-26T15:48:51.472Z,7.40
2023-01-26T15:51:37.688Z,7.40
2023-01-26T15:54:22.898Z,7.40
2023-01-26T15:57:09.385Z,7.30
2023-01-26T15:59:55.095Z,7.30
2023-01-26T16:02:40.758Z,7.30
2023-01-26T16:05:26.581Z,7.30
2023-01-26T16:08:12.215Z,7.30
2023-01-26T16:10:57.589Z,7.30
2023-01-26T16:13:57.317Z,7.30
2023-01-26T16:16:47.747Z,7.20
2023-01-26T16:19:35.534Z,7.10
2023-01-26T16:22:21.517Z,7.10
2023-01-26T16:25:20.563Z,7.10
2023-01-26T16:28:05.929Z,7.10
2023-01-26T16:30:51.861Z,7.00
2023-01-26T16:33:40.515Z,6.90
2023-01-26T16:36:26.113Z,6.80
2023-01-26T16:39:12.130Z,6.70
2023-01-26T16:41:57.495Z,6.70
2023-01-26T16:44:43.267Z,6.70
2023-01-26T16:47:28.734Z,6.60
2023-01-26T16:50:14.366Z,6.50
2023-01-26T16:53:02.845Z,6.50
2023-01-26T16:55:48.449Z,6.50
2023-01-26T16:58:34.255Z,6.40
2023-01-26T17:01:19.640Z,6.40
2023-01-26T17:04:05.347Z,6.30
2023-01-26T17:06:50.760Z,6.30
2023-01-26T17:09:36.456Z,6.30
2023-01-26T17:12:21.709Z,6.20
2023-01-26T17:15:08.453Z,6.10
2023-01-26T17:17:53.662Z,6.10
2023-01-26T17:20:41.301Z,6.10
2023-01-26T17:23:26.583Z,6.00
2023-01-26T17:26:13.473Z,5.90
2023-01-26T17:28:59.085Z,5.90
2023-01-26T17:31:44.766Z,5.80
2023-01-26T17:34:30.198Z,5.70
2023-01-26T17:37:16.553Z,5.70
2023-01-26T17:40:02.026Z,5.70
2023-01-26T17:42:47.717Z,5.60
2023-01-26T17:45:33.444Z,4.50
2023-01-26T17:48:18.889Z,5.50
2023-01-26T17:51:05.995Z,5.50
2023-01-26T17:53:51.385Z,5.40
2023-01-26T17:56:37.013Z,5.30
2023-01-26T17:59:22.742Z,5.20
2023-01-26T18:02:09.580Z,5.20
2023-01-26T18:04:55.621Z,5.10
2023-01-26T18:07:41.283Z,5.10
2023-01-26T18:10:30.356Z,5.10
2023-01-26T18:13:16.286Z,5.10
2023-01-26T18:16:01.825Z,5.00
2023-01-26T18:18:47.664Z,4.90
2023-01-26T18:21:34.804Z,4.80
2023-01-26T18:24:20.423Z,4.80
2023-01-26T18:27:06.082Z,4.70
2023-01-26T18:29:51.489Z,4.70
2023-01-26T18:32:37.393Z,4.70
2023-01-26T18:35:22.822Z,4.70
2023-01-26T18:38:08.537Z,4.60
2023-01-26T18:40:54.159Z,4.60
2023-01-26T18:43:40.407Z,4.60
2023-01-26T18:46:28.068Z,4.60
2023-01-26T18:49:13.285Z,4.50
2023-01-26T18:51:58.755Z,4.40
2023-01-26T18:54:44.662Z,4.40
2023-01-26T18:57:30.166Z,4.30
2023-01-26T19:00:15.585Z,4.40
2023-01-26T19:03:01.062Z,4.30
2023-01-26T19:05:46.940Z,4.30
2023-01-26T19:08:32.743Z,4.30
2023-01-26T19:11:18.352Z,4.20
2023-01-26T19:14:04.779Z,4.20
2023-01-26T19:16:50.528Z,4.20
2023-01-26T19:19:36.274Z,4.20
2023-01-26T19:22:21.867Z,4.10
2023-01-26T19:25:07.908Z,4.10
2023-01-26T19:27:53.487Z,4.10
2023-01-26T19:30:39.381Z,4.00
2023-01-26T19:33:25.203Z,4.00
2023-01-26T19:36:10.591Z,3.90
2023-01-26T19:38:57.617Z,3.90
2023-01-26T19:41:44.314Z,3.90
2023-01-26T19:44:29.883Z,3.90
2023-01-26T19:47:15.506Z,3.90
2023-01-26T19:50:01.127Z,3.80
2023-01-26T19:52:46.889Z,3.80
2023-01-26T19:55:33.122Z,3.70
2023-01-26T19:58:18.529Z,3.70
2023-01-26T20:01:06.029Z,3.60
2023-01-26T20:03:52.295Z,3.60
2023-01-26T20:06:37.713Z,3.50
2023-01-26T20:09:23.580Z,3.50
2023-01-26T20:12:11.503Z,3.50
2023-01-26T20:14:59.028Z,3.60
2023-01-26T20:17:45.971Z,3.60
2023-01-26T20:20:31.817Z,3.50
2023-01-26T20:23:17.818Z,3.50
2023-01-26T20:26:05.226Z,3.40
2023-01-26T20:28:51.651Z,3.40
2023-01-26T20:31:37.328Z,3.40
2023-01-26T20:34:22.767Z,3.40
2023-01-26T20:37:08.569Z,3.30
2023-01-26T20:39:54.271Z,3.30
2023-01-26T20:42:39.760Z,3.20
2023-01-26T20:45:25.354Z,3.20
2023-01-26T20:48:11.350Z,3.00
2023-01-26T20:50:56.794Z,3.20
2023-01-26T20:53:42.142Z,3.20
2023-01-26T20:56:28.118Z,3.20
2023-01-26T20:59:13.704Z,3.20
2023-01-26T21:01:59.277Z,3.10
2023-01-26T21:04:44.917Z,3.10
2023-01-26T21:07:30.125Z,3.10
2023-01-26T21:10:15.867Z,3.10
2023-01-26T21:13:01.555Z,3.10
2023-01-26T21:15:49.595Z,3.00
2023-01-26T21:18:35.170Z,3.00
2023-01-26T21:21:21.769Z,2.90
2023-01-26T21:24:07.518Z,2.90
2023-01-26T21:26:53.340Z,2.90
2023-01-26T21:29:40.486Z,2.80
2023-01-26T21:32:26.044Z,2.70
2023-01-26T21:35:13.925Z,2.70
2023-01-26T21:37:59.926Z,2.70
2023-01-26T21:40:45.235Z,2.70
2023-01-26T21:43:30.520Z,2.80
2023-01-26T21:46:16.214Z,2.80
2023-01-26T21:49:02.344Z,2.80
2023-01-26T21:52:06.379Z,2.80
2023-01-26T21:54:51.729Z,2.80
2023-01-26T21:57:56.451Z,2.80
2023-01-26T22:00:43.169Z,2.80
2023-01-26T22:03:28.870Z,2.80
2023-01-26T22:06:14.526Z,2.80
2023-01-26T22:09:00.312Z,2.80
2023-01-26T22:11:46.001Z,2.80
2023-01-26T22:14:31.297Z,2.90
2023-01-26T22:17:17.126Z,2.90
2023-01-26T22:20:02.833Z,2.90
2023-01-26T22:22:48.438Z,2.80
2023-01-26T22:25:40.800Z,2.80
2023-01-26T22:28:26.389Z,2.80
2023-01-26T22:31:12.214Z,2.80
2023-01-26T22:33:58.476Z,2.80
2023-01-26T22:36:43.910Z,2.90
2023-01-26T22:39:29.757Z,2.80
2023-01-26T22:42:15.312Z,2.80
2023-01-26T22:45:00.694Z,2.80
2023-01-26T22:47:49.772Z,2.80
2023-01-26T22:50:35.494Z,2.80
2023-01-26T22:53:21.124Z,2.80
2023-01-26T22:56:07.368Z,2.80
2023-01-26T22:58:59.503Z,2.90
2023-01-26T23:01:45.445Z,2.90
2023-01-26T23:04:31.375Z,2.90
2023-01-26T23:07:16.877Z,2.90
2023-01-26T23:10:02.351Z,2.90
2023-01-26T23:12:47.849Z,2.90
2023-01-26T23:15:33.248Z,2.90
2023-01-26T23:18:18.902Z,2.90
2023-01-26T23:21:04.947Z,2.90
2023-01-26T23:23:50.868Z,2.90
2023-01-26T23:26:36.302Z,2.90
2023-01-26T23:29:21.627Z,2.90
2023-01-26T23:32:07.440Z,2.80
2023-01-26T23:34:52.625Z,2.80
2023-01-26T23:37:38.015Z,2.80
2023-01-26T23:40:23.790Z,2.90
2023-01-26T23:43:16.533Z,2.90
2023-01-26T23:46:02.916Z,3.00
2023-01-26T23:48:48.600Z,3.00
2023-01-26T23:51:34.003Z,3.10
2023-01-26T23:54:19.344Z,3.10
2023-01-26T23:57:04.551Z,3.10
2023-01-26T23:59:50.470Z,3.10
